Time;durP1;ratioP1;P1;durP2;ratioP2;P2;SDS_P1;SDS_P2;PMS_P1;PMS_P2;Temp;Humidity;BMP_temperature;BMP_pressure;BME280_temperature;BME280_humidity;BME280_pressure;Samples;Min_cycle;Max_cycle;Signal;HPM_P1;HPM_P2
2022/04/29 00:00:11;;;;;;;22.58;16.63;;;;;;;16.15;35.59;103286.41;5053688;28;20028;-73
2022/04/29 00:02:38;;;;;;;25.77;16.65;;;;;;;16.19;35.38;103291.06;5053671;28;20021;-73
2022/04/29 00:05:04;;;;;;;26.88;16.17;;;;;;;16.29;35.45;103296.47;5053593;28;20024;-73
2022/04/29 00:07:30;;;;;;;23.00;16.52;;;;;;;16.39;35.46;103301.06;5053929;28;20067;-73
2022/04/29 00:09:56;;;;;;;20.92;15.90;;;;;;;16.42;35.39;103294.16;5053289;28;20040;-87
2022/04/29 00:12:21;;;;;;;20.75;15.48;;;;;;;16.45;35.24;103293.56;5053661;28;20396;-73
2022/04/29 00:14:47;;;;;;;22.80;16.40;;;;;;;16.49;35.30;103292.69;5051809;28;20038;-73
2022/04/29 00:17:13;;;;;;;22.73;15.85;;;;;;;16.37;35.34;103283.97;5053761;28;20044;-74
2022/04/29 00:19:40;;;;;;;21.52;16.42;;;;;;;16.34;35.71;103299.19;5053284;28;20049;-73
2022/04/29 00:22:06;;;;;;;21.27;15.55;;;;;;;16.39;35.72;103298.31;5053219;28;20103;-74
2022/04/29 00:24:31;;;;;;;24.00;15.77;;;;;;;16.33;35.84;103305.00;5053362;28;20033;-73
2022/04/29 00:26:58;;;;;;;20.05;14.98;;;;;;;16.32;35.96;103303.34;5053332;28;20570;-73
2022/04/29 00:29:24;;;;;;;24.90;15.95;;;;;;;16.48;35.59;103302.09;5052847;28;20082;-73
2022/04/29 00:31:50;;;;;;;24.02;16.65;;;;;;;16.36;35.90;103293.38;5053147;28;20096;-73
2022/04/29 00:34:17;;;;;;;23.23;14.88;;;;;;;16.39;36.24;103303.81;5053157;28;20074;-73
2022/04/29 00:36:42;;;;;;;23.63;15.52;;;;;;;16.40;36.32;103305.50;5052880;28;20059;-73
2022/04/29 00:39:08;;;;;;;24.98;16.38;;;;;;;16.50;36.22;103290.75;5052950;28;20033;-74
2022/04/29 00:41:34;;;;;;;20.35;15.23;;;;;;;16.47;36.10;103286.63;5053309;28;20029;-82
2022/04/29 00:44:10;;;;;;;25.90;17.15;;;;;;;16.52;36.22;103281.06;5053414;28;20109;-73
2022/04/29 00:46:38;;;;;;;19.92;16.13;;;;;;;16.55;36.29;103282.41;5052896;28;20028;-73
2022/04/29 00:49:06;;;;;;;21.55;17.20;;;;;;;16.61;36.08;103287.59;5052662;28;20395;-74
2022/04/29 00:51:32;;;;;;;23.95;16.95;;;;;;;16.58;36.22;103279.91;5052554;28;20025;-73
2022/04/29 00:53:58;;;;;;;21.95;17.15;;;;;;;16.70;36.21;103282.31;5052843;28;20468;-73
2022/04/29 00:56:28;;;;;;;27.63;18.48;;;;;;;16.74;36.32;103282.53;5052627;28;20029;-73
2022/04/29 00:59:01;;;;;;;29.38;18.02;;;;;;;16.73;36.28;103273.44;5052616;28;20036;-73
2022/04/29 01:01:31;;;;;;;31.77;18.80;;;;;;;16.61;36.58;103268.28;5052945;28;20025;-73
2022/04/29 01:04:00;;;;;;;26.85;19.70;;;;;;;16.56;36.58;103265.59;5052763;28;20025;-84
2022/04/29 01:06:26;;;;;;;35.67;20.13;;;;;;;16.51;36.73;103271.16;5052745;28;20024;-90
2022/04/29 01:08:52;;;;;;;25.98;19.67;;;;;;;16.56;36.89;103264.75;5052716;28;20434;-72
2022/04/29 01:11:22;;;;;;;29.92;18.13;;;;;;;16.48;37.08;103266.22;5052434;28;20029;-73
2022/04/29 01:13:50;;;;;;;26.90;18.33;;;;;;;16.50;37.13;103265.94;5052525;28;20029;-73
2022/04/29 01:16:16;;;;;;;27.95;20.42;;;;;;;16.61;36.83;103257.22;5052461;28;20529;-74
2022/04/29 01:18:43;;;;;;;26.70;19.00;;;;;;;16.61;37.00;103254.47;5052509;28;20475;-73
2022/04/29 01:21:09;;;;;;;23.00;18.27;;;;;;;16.52;37.20;103256.22;5052243;28;20464;-74
2022/04/29 01:23:35;;;;;;;26.05;18.95;;;;;;;16.53;37.17;103257.88;5052695;28;20070;-77
2022/04/29 01:26:01;;;;;;;29.15;18.55;;;;;;;16.56;37.02;103257.31;5052796;28;20024;-73
2022/04/29 01:28:29;;;;;;;27.38;19.77;;;;;;;16.58;37.37;103248.72;5052322;28;20112;-73
2022/04/29 01:30:57;;;;;;;28.60;20.55;;;;;;;16.59;37.36;103245.66;5051956;28;20025;-73
2022/04/29 01:33:26;;;;;;;27.65;20.63;;;;;;;16.52;37.36;103239.66;5052532;28;20025;-76
2022/04/29 01:35:51;;;;;;;29.70;20.13;;;;;;;16.53;37.44;103240.50;5055338;28;20096;-73
2022/04/29 01:38:20;;;;;;;27.15;20.83;;;;;;;16.44;37.54;103234.78;5056554;28;20136;-74
2022/04/29 01:40:45;;;;;;;27.05;20.85;;;;;;;16.53;37.24;103221.16;5056575;28;20422;-73
2022/04/29 01:43:11;;;;;;;28.70;20.98;;;;;;;16.55;37.58;103224.44;5056120;28;20021;-89
2022/04/29 01:45:37;;;;;;;32.33;22.15;;;;;;;16.53;37.39;103230.28;5056460;28;20500;-72
2022/04/29 01:48:03;;;;;;;35.47;20.50;;;;;;;16.55;37.35;103230.81;5056029;28;20025;-73
2022/04/29 01:50:28;;;;;;;24.60;20.33;;;;;;;16.54;37.45;103222.81;5056173;28;20065;-73
2022/04/29 01:52:54;;;;;;;26.67;19.60;;;;;;;16.52;37.40;103227.81;5056030;28;20108;-73
2022/04/29 01:55:20;;;;;;;24.52;18.95;;;;;;;16.50;37.37;103233.63;5056221;28;20048;-73
2022/04/29 01:57:49;;;;;;;26.92;19.80;;;;;;;16.45;37.56;103227.34;5056217;28;20075;-74
2022/04/29 02:00:15;;;;;;;29.35;19.33;;;;;;;16.42;37.48;103231.50;5055933;28;20028;-91
2022/04/29 02:02:41;;;;;;;26.02;18.88;;;;;;;16.40;37.41;103239.28;5055998;28;20025;-73
2022/04/29 02:05:07;;;;;;;34.50;22.25;;;;;;;16.33;37.63;103239.59;5055736;28;20469;-73
2022/04/29 02:07:32;;;;;;;33.10;20.70;;;;;;;16.38;37.51;103235.97;5055994;28;20025;-73
2022/04/29 02:09:58;;;;;;;28.92;19.33;;;;;;;16.44;37.61;103229.28;5055467;28;20040;-73
2022/04/29 02:12:24;;;;;;;28.90;20.30;;;;;;;16.47;37.41;103236.97;5055561;28;20028;-73
2022/04/29 02:14:49;;;;;;;27.20;20.73;;;;;;;16.58;37.31;103235.75;5055852;28;20028;-73
2022/04/29 02:17:15;;;;;;;26.75;21.23;;;;;;;16.55;37.26;103229.97;5055473;28;20025;-88
2022/04/29 02:19:41;;;;;;;27.65;21.08;;;;;;;16.50;37.30;103219.84;5054329;28;20549;-73
2022/04/29 02:22:08;;;;;;;30.52;20.30;;;;;;;16.50;37.40;103219.84;5055672;28;20025;-73
2022/04/29 02:24:34;;;;;;;28.90;19.80;;;;;;;16.49;37.54;103228.41;5055677;28;20119;-74
2022/04/29 02:27:00;;;;;;;26.05;17.58;;;;;;;16.43;37.46;103205.56;5055494;28;20075;-73
2022/04/29 02:29:29;;;;;;;29.52;20.38;;;;;;;16.40;37.65;103199.78;5055331;28;20035;-73
2022/04/29 02:31:56;;;;;;;32.67;20.23;;;;;;;16.35;37.70;103206.19;5055318;28;20499;-73
2022/04/29 02:34:23;;;;;;;21.95;18.48;;;;;;;16.33;37.55;103195.47;5055404;28;20090;-73
2022/04/29 02:36:49;;;;;;;29.00;20.33;;;;;;;16.31;37.62;103199.63;5055218;28;20083;-74
2022/04/29 02:39:15;;;;;;;28.38;19.85;;;;;;;16.35;37.59;103189.66;5055274;28;20033;-89
2022/04/29 02:41:40;;;;;;;26.65;18.65;;;;;;;16.34;37.67;103188.81;5049010;28;20033;-73
2022/04/29 02:44:06;;;;;;;30.00;19.75;;;;;;;16.36;37.58;103186.59;5055057;28;20032;-73
2022/04/29 02:46:32;;;;;;;29.20;19.48;;;;;;;16.41;37.63;103177.44;5054925;28;20035;-73
2022/04/29 02:48:58;;;;;;;26.58;18.42;;;;;;;16.41;37.62;103174.69;5054583;28;20049;-74
2022/04/29 02:51:24;;;;;;;26.35;18.00;;;;;;;16.38;37.51;103180.78;5054387;28;20112;-73
2022/04/29 02:53:51;;;;;;;28.17;18.17;;;;;;;16.41;37.75;103180.22;5054973;28;20079;-73
2022/04/29 02:56:17;;;;;;;27.02;21.67;;;;;;;16.51;37.33;103185.59;5055029;28;20040;-85
2022/04/29 02:58:43;;;;;;;25.90;20.25;;;;;;;16.50;37.18;103183.94;5054821;28;20033;-73
2022/04/29 03:01:08;;;;;;;27.75;20.20;;;;;;;16.53;37.37;103183.34;5054839;28;20027;-90
2022/04/29 03:03:34;;;;;;;28.33;19.83;;;;;;;16.54;37.44;103189.69;5054754;28;20021;-74
2022/04/29 03:06:00;;;;;;;28.00;19.45;;;;;;;16.52;37.46;103191.94;5053749;28;20025;-74
2022/04/29 03:08:25;;;;;;;30.88;19.60;;;;;;;16.45;37.50;103192.28;5054483;28;20025;-74
2022/04/29 03:10:51;;;;;;;25.85;19.60;;;;;;;16.47;37.53;103194.75;5052795;28;20535;-74
2022/04/29 03:13:16;;;;;;;28.27;20.20;;;;;;;16.51;37.39;103195.81;5054913;28;20555;-92
2022/04/29 03:15:42;;;;;;;22.67;17.55;;;;;;;16.42;37.82;103192.88;5054457;28;20040;-74
2022/04/29 03:18:23;;;;;;;26.38;20.10;;;;;;;16.51;37.58;103193.06;5054493;28;20036;-73
2022/04/29 03:20:56;;;;;;;27.77;20.05;;;;;;;16.51;37.67;103184.78;5054553;28;20025;-73
2022/04/29 03:23:22;;;;;;;25.60;18.63;;;;;;;16.51;37.75;103191.13;5054804;28;20392;-73
2022/04/29 03:25:48;;;;;;;24.23;17.38;;;;;;;16.63;37.41;103188.78;5054345;28;20064;-74
2022/04/29 03:28:15;;;;;;;24.73;19.30;;;;;;;16.65;37.45;103185.72;5054313;28;20036;-73
2022/04/29 03:30:41;;;;;;;23.67;18.67;;;;;;;16.71;37.44;103190.09;5054631;28;20021;-73
2022/04/29 03:33:08;;;;;;;24.73;18.20;;;;;;;16.65;37.41;103188.47;5054359;28;20036;-73
2022/04/29 03:35:44;;;;;;;28.85;18.95;;;;;;;16.74;37.38;103192.25;5054241;28;20025;-73
2022/04/29 03:38:10;;;;;;;24.80;18.73;;;;;;;16.74;37.53;103188.66;5054194;28;20028;-73
2022/04/29 03:40:36;;;;;;;29.58;18.38;;;;;;;16.80;37.29;103187.50;5054382;28;20032;-74
2022/04/29 03:43:02;;;;;;;26.50;18.42;;;;;;;16.81;37.40;103186.38;5054174;28;20404;-73
2022/04/29 03:45:29;;;;;;;22.50;18.23;;;;;;;16.89;37.24;103183.75;5054072;28;20029;-73
2022/04/29 03:47:55;;;;;;;23.60;17.75;;;;;;;16.94;37.11;103177.34;5054075;28;20108;-74
2022/04/29 03:50:25;;;;;;;24.38;17.00;;;;;;;16.93;37.08;103178.47;5054145;28;20578;-73
2022/04/29 03:55:29;;;;;;;23.02;17.40;;;;;;;16.92;37.20;103168.53;5178356;22;20053;-76
2022/04/29 03:57:55;;;;;;;20.45;16.52;;;;;;;16.98;37.31;103167.34;5053181;28;20031;-75
2022/04/29 04:00:23;;;;;;;25.85;17.85;;;;;;;16.81;37.54;103170.63;5035484;28;20521;-75
2022/04/29 04:02:49;;;;;;;30.60;18.80;;;;;;;16.64;37.78;103181.31;5053544;28;20429;-74
2022/04/29 04:05:16;;;;;;;25.10;17.23;;;;;;;16.66;38.05;103181.84;5053762;28;20044;-74
2022/04/29 04:07:42;;;;;;;24.67;16.95;;;;;;;16.63;37.79;103188.78;5053541;28;20036;-75
2022/04/29 04:10:08;;;;;;;23.35;17.27;;;;;;;16.62;37.95;103181.63;5053439;28;20033;-77
2022/04/29 04:12:53;;;;;;;23.85;16.67;;;;;;;16.59;37.97;103189.66;5035676;28;20051;-74
2022/04/29 04:15:25;;;;;;;25.48;17.30;;;;;;;16.61;37.89;103182.69;5053648;28;20170;-74
2022/04/29 04:17:51;;;;;;;29.08;17.58;;;;;;;16.51;38.10;103176.50;5053420;28;20037;-74
2022/04/29 04:20:17;;;;;;;29.60;17.92;;;;;;;16.48;38.14;103186.19;5053337;28;20094;-75
2022/04/29 04:22:43;;;;;;;29.65;17.92;;;;;;;16.56;37.89;103177.25;5053531;28;20032;-73
2022/04/29 04:25:12;;;;;;;25.70;18.00;;;;;;;16.59;38.05;103184.13;5053008;28;20025;-74
2022/04/29 04:27:38;;;;;;;26.58;18.05;;;;;;;16.52;37.98;103181.72;5053340;28;20054;-74
2022/04/29 04:30:04;;;;;;;25.00;17.85;;;;;;;16.54;38.18;103185.00;5053281;28;20082;-73
2022/04/29 04:32:34;;;;;;;20.80;16.83;;;;;;;16.50;38.01;103192.22;5053181;28;20032;-75
2022/04/29 04:35:00;;;;;;;25.35;16.15;;;;;;;16.38;38.49;103200.91;5053402;28;20494;-75
2022/04/29 04:37:28;;;;;;;25.52;16.90;;;;;;;16.52;38.46;103201.03;5053517;28;20039;-78
2022/04/29 04:39:54;;;;;;;23.40;15.82;;;;;;;16.57;37.95;103206.50;5053269;28;20029;-74
2022/04/29 04:42:21;;;;;;;26.05;18.88;;;;;;;16.52;38.21;103198.28;5035387;28;20024;-73
2022/04/29 04:44:48;;;;;;;23.83;16.48;;;;;;;16.44;38.53;103193.41;5052984;28;20033;-74
2022/04/29 04:47:14;;;;;;;24.92;16.63;;;;;;;16.34;38.67;103191.59;5052899;28;20415;-74
2022/04/29 04:49:39;;;;;;;24.65;17.63;;;;;;;16.35;38.75;103190.47;5052667;28;20033;-74
2022/04/29 04:52:06;;;;;;;26.42;17.55;;;;;;;16.33;38.69;103186.38;5052966;28;20020;-73
2022/04/29 04:54:32;;;;;;;26.40;18.67;;;;;;;16.41;38.44;103182.16;5052856;28;20507;-74
2022/04/29 04:56:57;;;;;;;25.83;17.35;;;;;;;16.44;38.51;103193.41;5034830;28;20140;-74
2022/04/29 04:59:23;;;;;;;27.23;19.23;;;;;;;16.44;38.47;103196.16;5052768;28;20051;-74
2022/04/29 05:01:49;;;;;;;22.60;15.73;;;;;;;16.51;38.51;103191.13;5053032;28;20033;-74
2022/04/29 05:04:15;;;;;;;28.13;17.30;;;;;;;16.41;38.57;103188.47;5052779;28;20450;-74
2022/04/29 05:06:41;;;;;;;22.38;16.90;;;;;;;16.46;38.53;103187.59;5052786;28;20536;-90
2022/04/29 05:09:07;;;;;;;28.58;16.58;;;;;;;16.31;38.68;103185.81;5051869;28;20029;-74
2022/04/29 05:11:33;;;;;;;26.15;16.98;;;;;;;16.29;38.78;103185.28;5034901;28;20086;-73
2022/04/29 05:14:00;;;;;;;24.33;16.52;;;;;;;16.25;38.96;103181.50;5035078;28;20035;-73
2022/04/29 05:16:26;;;;;;;27.02;17.55;;;;;;;16.13;38.91;103189.34;5052885;28;20029;-83
2022/04/29 05:18:52;;;;;;;26.27;18.25;;;;;;;16.01;39.52;103192.47;5052666;28;20086;-74
2022/04/29 05:21:19;;;;;;;26.67;18.17;;;;;;;16.27;39.00;103193.06;5051807;28;20032;-73
2022/04/29 05:23:45;;;;;;;27.50;17.75;;;;;;;16.28;39.00;103197.44;5050950;28;20033;-73
2022/04/29 05:26:11;;;;;;;26.85;17.25;;;;;;;16.44;38.84;103198.91;5052421;28;20087;-73
2022/04/29 05:28:36;;;;;;;23.83;16.75;;;;;;;16.35;38.94;103196.00;5052566;28;20124;-73
2022/04/29 05:31:03;;;;;;;27.92;16.90;;;;;;;16.33;39.19;103197.41;5052376;28;20108;-74
2022/04/29 05:33:31;;;;;;;26.42;17.80;;;;;;;16.34;39.29;103205.38;5052056;28;20033;-74
2022/04/29 05:35:58;;;;;;;23.65;17.15;;;;;;;16.51;38.89;103206.84;5052314;28;20368;-73
2022/04/29 05:42:14;;;;;;;27.25;17.48;;;;;;;16.52;39.05;103208.50;5052337;28;20111;-76
2022/04/29 05:43:54;;;;;;;24.77;16.92;;;;;;;16.66;39.21;103203.91;5052202;28;20031;-74
2022/04/29 05:46:19;;;;;;;31.83;17.98;;;;;;;16.84;38.79;103210.59;5034198;28;20032;-74
2022/04/29 05:48:45;;;;;;;24.95;16.98;;;;;;;16.86;39.23;103213.91;5052121;28;20457;-75
2022/04/29 05:51:10;;;;;;;25.33;17.65;;;;;;;16.97;39.10;103220.13;5033952;28;20534;-74
2022/04/29 05:53:36;;;;;;;37.30;19.80;;;;;;;17.04;39.26;103221.41;5051825;28;20061;-88
2022/04/29 05:56:01;;;;;;;26.67;17.17;;;;;;;17.16;38.96;103220.97;5051620;28;20029;-75
2022/04/29 05:58:27;;;;;;;24.40;17.35;;;;;;;17.12;38.91;103223.50;5053344;28;20090;-74
2022/04/29 06:00:53;;;;;;;27.23;19.27;;;;;;;16.99;39.17;103224.22;5052064;28;20067;-77
2022/04/29 06:03:18;;;;;;;28.75;18.25;;;;;;;17.06;39.18;103232.97;5052497;28;20037;-75
2022/04/29 06:05:44;;;;;;;24.10;17.08;;;;;;;17.16;38.80;103219.03;5051962;28;20029;-80
2022/04/29 06:08:09;;;;;;;25.33;17.63;;;;;;;17.12;39.01;103220.72;5050182;28;20150;-75
2022/04/29 06:10:35;;;;;;;24.95;16.13;;;;;;;16.99;39.17;103215.94;5035739;28;20064;-72
2022/04/29 06:13:00;;;;;;;28.25;18.58;;;;;;;16.96;39.36;103230.34;5035997;28;20402;-72
2022/04/29 06:15:26;;;;;;;28.38;17.80;;;;;;;16.85;39.66;103228.81;5035674;28;20029;-71
2022/04/29 06:17:52;;;;;;;25.88;17.88;;;;;;;16.98;39.18;103227.28;5036197;28;20044;-72
2022/04/29 06:20:17;;;;;;;23.67;17.35;;;;;;;17.02;39.02;103231.13;5036862;28;20480;-72
2022/04/29 06:22:46;;;;;;;29.17;18.15;;;;;;;17.06;39.14;103232.16;5039516;28;20459;-86
2022/04/29 06:25:12;;;;;;;28.93;18.00;;;;;;;16.95;39.32;103236.19;5039862;28;20075;-72
2022/04/29 06:27:38;;;;;;;25.48;18.30;;;;;;;17.12;39.09;103233.72;5039942;28;20750;-73
2022/04/29 06:30:04;;;;;;;23.02;17.13;;;;;;;17.21;38.72;103240.22;5039398;28;20041;-72
2022/04/29 06:32:30;;;;;;;26.77;17.58;;;;;;;17.25;38.92;103243.22;5039052;28;20537;-72
2022/04/29 06:34:55;;;;;;;27.55;17.67;;;;;;;17.28;39.20;103242.63;5039765;28;20025;-86
2022/04/29 06:37:21;;;;;;;25.13;18.45;;;;;;;17.37;39.10;103240.81;5039914;28;20029;-71
2022/04/29 06:39:47;;;;;;;21.95;15.38;;;;;;;17.43;38.89;103240.47;5039604;28;20418;-72
2022/04/29 06:42:13;;;;;;;27.25;15.82;;;;;;;17.45;39.09;103237.38;5042270;28;20025;-73
2022/04/29 06:44:38;;;;;;;22.23;16.55;;;;;;;17.55;39.13;103240.00;5051431;28;20032;-73
2022/04/29 06:47:04;;;;;;;31.15;16.58;;;;;;;17.50;39.21;103240.09;5037770;28;20063;-71
2022/04/29 06:49:29;;;;;;;22.15;16.38;;;;;;;17.69;38.99;103235.38;5055446;28;20051;-85
2022/04/29 06:51:55;;;;;;;20.70;14.70;;;;;;;17.72;39.13;103231.22;5042715;28;20032;-72
2022/04/29 06:54:21;;;;;;;24.98;15.90;;;;;;;17.88;39.18;103231.78;5038757;28;20771;-83
2022/04/29 06:56:46;;;;;;;27.67;15.40;;;;;;;17.90;38.97;103229.50;5038716;28;20033;-72
2022/04/29 06:59:12;;;;;;;27.90;15.93;;;;;;;17.96;39.15;103231.06;5038773;28;20040;-72
2022/04/29 07:01:38;;;;;;;24.75;15.32;;;;;;;18.02;39.29;103221.56;5039080;28;20025;-73
2022/04/29 07:04:04;;;;;;;22.65;14.32;;;;;;;17.90;39.71;103221.22;5038701;28;20095;-71
2022/04/29 07:06:31;;;;;;;25.27;15.20;;;;;;;17.97;40.27;103210.59;5038539;28;20399;-72
2022/04/29 07:08:57;;;;;;;22.00;14.40;;;;;;;17.87;40.57;103210.78;5038872;28;20064;-72
2022/04/29 07:11:25;;;;;;;24.90;15.13;;;;;;;17.60;41.44;103217.81;5051748;28;20060;-71
2022/04/29 07:13:52;;;;;;;21.98;13.75;;;;;;;18.11;40.61;103219.75;5020423;28;20115;-72
2022/04/29 07:16:18;;;;;;;24.33;15.57;;;;;;;17.95;41.17;103210.91;5038563;28;20115;-72
2022/04/29 07:18:44;;;;;;;20.63;14.10;;;;;;;18.14;41.07;103210.84;5038597;28;20399;-71
2022/04/29 07:21:09;;;;;;;22.05;13.98;;;;;;;17.83;41.74;103207.78;5037304;28;20155;-74
2022/04/29 07:23:35;;;;;;;27.98;16.08;;;;;;;18.10;41.52;103223.63;5030738;28;20501;-85
2022/04/29 07:26:02;;;;;;;20.15;13.75;;;;;;;18.17;41.38;103232.38;5042711;28;20174;-88
2022/04/29 07:28:27;;;;;;;27.25;15.10;;;;;;;18.15;41.79;103228.28;5057367;28;20032;-72
2022/04/29 07:30:53;;;;;;;23.02;16.27;;;;;;;18.34;41.60;103228.19;5061509;28;20044;-72
2022/04/29 07:33:19;;;;;;;25.92;13.52;;;;;;;18.40;41.65;103232.50;5073543;28;20025;-74
2022/04/29 07:43:57;;;;;;;22.00;15.65;;;;;;;18.53;41.43;103251.06;5051809;28;20460;-73
2022/04/29 07:46:22;;;;;;;22.85;15.00;;;;;;;18.83;40.70;103258.81;5052384;28;20033;-73
2022/04/29 07:48:48;;;;;;;23.08;14.65;;;;;;;18.91;41.07;103254.50;5052840;28;20119;-89
2022/04/29 07:51:14;;;;;;;27.63;17.33;;;;;;;18.94;40.94;103261.34;5052475;28;20075;-73
2022/04/29 07:53:40;;;;;;;24.90;15.85;;;;;;;19.14;40.34;103263.69;5069667;28;20045;-73
2022/04/29 07:56:05;;;;;;;22.20;15.68;;;;;;;19.23;40.23;103256.28;5072390;28;20020;-74
2022/04/29 07:58:31;;;;;;;25.98;14.77;;;;;;;19.38;39.95;103261.50;5072490;28;20420;-74
2022/04/29 08:00:57;;;;;;;23.10;14.52;;;;;;;19.22;40.26;103262.97;5071136;28;20607;-75
2022/04/29 08:03:23;;;;;;;25.67;16.15;;;;;;;19.08;40.71;103265.75;5073423;28;20390;-89
2022/04/29 08:05:52;;;;;;;25.10;16.67;;;;;;;19.27;40.01;103260.09;5073783;28;20106;-73
2022/04/29 08:08:19;;;;;;;20.95;16.42;;;;;;;19.29;40.27;103259.78;5073849;28;20035;-81
2022/04/29 08:10:45;;;;;;;29.67;16.77;;;;;;;19.58;39.66;103278.84;5073521;28;20036;-73
2022/04/29 08:13:11;;;;;;;21.02;14.95;;;;;;;19.25;40.33;103273.41;5074082;28;20052;-73
2022/04/29 08:15:37;;;;;;;23.60;14.57;;;;;;;19.34;39.98;103274.31;5073904;28;20150;-74
2022/04/29 08:18:05;;;;;;;23.60;14.75;;;;;;;19.36;40.04;103274.84;5073750;28;20020;-73
2022/04/29 08:20:31;;;;;;;20.00;13.00;;;;;;;19.27;40.15;103265.63;5073541;28;20481;-88
2022/04/29 08:22:57;;;;;;;19.75;13.80;;;;;;;18.95;40.74;103263.81;5041222;28;20029;-71
2022/04/29 08:25:22;;;;;;;29.90;13.20;;;;;;;19.17;40.34;103265.03;5053671;28;20180;-72
2022/04/29 08:27:50;;;;;;;26.80;13.70;;;;;;;19.46;39.77;103262.69;5053888;28;20068;-72
2022/04/29 08:30:16;;;;;;;20.10;11.43;;;;;;;19.75;39.18;103262.31;5053043;28;20045;-89
2022/04/29 08:32:46;;;;;;;16.92;10.25;;;;;;;19.72;38.55;103268.47;5053383;28;20458;-88
2022/04/29 08:35:13;;;;;;;17.38;11.23;;;;;;;20.05;38.88;103273.78;5053180;28;20498;-90
2022/04/29 08:37:42;;;;;;;18.08;11.20;;;;;;;20.30;38.44;103281.44;5053031;28;20087;-72
2022/04/29 08:40:11;;;;;;;16.25;11.02;;;;;;;20.24;37.88;103274.38;5053035;28;20495;-72
2022/04/29 08:42:37;;;;;;;19.35;11.38;;;;;;;20.53;37.80;103273.09;5053390;28;20032;-72
2022/04/29 08:45:07;;;;;;;14.65;10.57;;;;;;;20.79;37.52;103271.25;5035068;28;20096;-72
2022/04/29 08:47:38;;;;;;;14.75;9.65;;;;;;;20.95;36.84;103269.69;5053287;28;20028;-73
2022/04/29 08:50:16;;;;;;;17.23;9.93;;;;;;;21.01;36.26;103273.13;5052976;28;20032;-80
2022/04/29 08:52:42;;;;;;;13.73;9.60;;;;;;;21.09;36.26;103269.56;5034005;28;20120;-74
2022/04/29 09:00:42;;;;;;;15.15;10.77;;;;;;;21.29;35.65;103265.34;5015114;28;20040;-73
2022/04/29 09:03:16;;;;;;;16.20;10.23;;;;;;;21.25;35.57;103259.59;5052883;28;20029;-73
2022/04/29 09:05:43;;;;;;;12.57;10.20;;;;;;;21.30;35.64;103261.41;5052773;28;20490;-73
2022/04/29 09:08:13;;;;;;;16.42;10.15;;;;;;;21.43;35.54;103259.63;5052738;28;20391;-74
2022/04/29 09:10:57;;;;;;;16.27;9.83;;;;;;;21.32;35.69;103259.16;5052924;28;20033;-78
2022/04/29 09:13:25;;;;;;;16.55;10.50;;;;;;;21.49;35.64;103253.59;5041759;28;20032;-88
2022/04/29 09:16:01;;;;;;;16.85;9.15;;;;;;;21.52;35.26;103244.56;5032711;28;20045;-73
2022/04/29 09:18:34;;;;;;;15.85;9.77;;;;;;;21.36;35.49;103256.53;5032766;28;20033;-74
2022/04/29 09:21:27;;;;;;;15.05;10.45;;;;;;;21.49;35.02;103248.03;5032987;28;20053;-73
2022/04/29 09:23:56;;;;;;;15.40;10.38;;;;;;;21.56;34.64;103247.53;5052857;28;20171;-74
2022/04/29 09:26:35;;;;;;;16.90;10.20;;;;;;;21.42;34.27;103256.03;5034993;28;20037;-75
2022/04/29 09:29:15;;;;;;;15.80;10.45;;;;;;;21.41;35.01;103253.59;5051962;28;20025;-73
2022/04/29 09:32:00;;;;;;;16.73;10.70;;;;;;;21.38;35.10;103248.66;5050578;28;20029;-83
2022/04/29 09:34:53;;;;;;;15.25;10.15;;;;;;;21.58;34.95;103246.06;5032911;28;20021;-73
2022/04/29 09:37:24;;;;;;;14.18;10.68;;;;;;;21.62;35.21;103240.66;5047663;28;20207;-83
2022/04/29 09:40:00;;;;;;;41.80;13.85;;;;;;;21.38;35.29;103248.66;5051734;28;20021;-73
2022/04/29 09:42:40;;;;;;;14.27;10.77;;;;;;;21.56;35.32;103247.53;5050950;28;20044;-81
2022/04/29 09:45:12;;;;;;;13.45;10.50;;;;;;;21.86;34.84;103249.31;5033132;28;20052;-73
2022/04/29 09:47:38;;;;;;;18.25;11.57;;;;;;;21.92;34.70;103247.19;5051595;28;20029;-73
2022/04/29 09:50:04;;;;;;;12.90;10.48;;;;;;;22.20;34.66;103253.19;5050805;28;20037;-74
2022/04/29 09:52:30;;;;;;;19.58;11.98;;;;;;;22.09;34.77;103249.13;5032903;28;20029;-93
2022/04/29 09:55:18;;;;;;;18.33;11.35;;;;;;;22.18;34.36;103243.53;5051216;28;20053;-71
2022/04/29 09:57:59;;;;;;;14.55;10.23;;;;;;;21.95;34.70;103246.50;5054536;28;20771;-72
2022/04/29 10:00:25;;;;;;;15.00;10.57;;;;;;;22.22;34.66;103236.13;5036622;28;20029;-73
2022/04/29 10:02:52;;;;;;;18.63;11.48;;;;;;;22.24;34.78;103239.44;5055009;28;20021;-72
2022/04/29 10:05:18;;;;;;;13.00;10.82;;;;;;;22.43;34.74;103239.84;5042492;28;20467;-72
2022/04/29 10:07:44;;;;;;;15.75;11.32;;;;;;;22.54;34.38;103237.50;5037066;28;20032;-73
2022/04/29 10:10:10;;;;;;;25.02;12.23;;;;;;;22.45;34.76;103248.69;5038239;28;20062;-73
2022/04/29 10:12:37;;;;;;;17.45;11.13;;;;;;;22.41;35.13;103239.34;5038165;28;20020;-73
2022/04/29 10:15:06;;;;;;;15.38;10.40;;;;;;;22.56;35.33;103232.41;5036215;28;20079;-73
2022/04/29 10:23:07;;;;;;;15.40;12.40;;;;;;;22.70;34.82;103236.59;5050689;28;20112;-73
2022/04/29 10:25:34;;;;;;;19.40;12.80;;;;;;;22.71;34.80;103237.41;5035780;28;20154;-73
2022/04/29 10:28:01;;;;;;;19.83;12.63;;;;;;;22.71;34.73;103232.66;5052791;28;20032;-72
2022/04/29 10:30:34;;;;;;;18.23;13.05;;;;;;;22.41;35.49;103237.38;5036000;28;20032;-72
2022/04/29 10:33:04;;;;;;;24.55;13.32;;;;;;;22.46;35.70;103249.50;5053778;28;20029;-75
2022/04/29 10:35:39;;;;;;;;;;;;;;;22.55;35.14;103244.72;5031992;28;20040;-75
2022/04/29 10:38:27;;;;;;;18.25;13.20;;;;;;;22.69;35.51;103242.50;5037370;28;19920;-75
2022/04/29 10:41:12;;;;;;;16.98;11.93;;;;;;;22.53;35.70;103250.63;5036454;28;20036;-75
2022/04/29 10:43:50;;;;;;;16.38;10.88;;;;;;;23.06;35.16;103235.28;5034947;28;20027;-75
2022/04/29 10:46:23;;;;;;;26.67;14.00;;;;;;;23.02;35.22;103237.09;5037495;28;20055;-74
2022/04/29 10:48:53;;;;;;;20.55;14.63;;;;;;;22.94;35.93;103235.19;5042703;28;20028;-74
2022/04/29 10:51:19;;;;;;;20.58;12.70;;;;;;;22.71;36.04;103240.19;5054299;28;20025;-74
2022/04/29 10:53:50;;;;;;;23.35;14.10;;;;;;;23.12;35.20;103242.25;5053651;28;20399;-75
2022/04/29 10:56:28;;;;;;;22.58;17.38;;;;;;;23.12;34.41;103244.22;5053612;28;20431;-75
2022/04/29 10:58:58;;;;;;;23.60;16.92;;;;;;;23.38;33.68;103235.69;5050615;28;20029;-74
2022/04/29 11:01:25;;;;;;;24.90;17.15;;;;;;;23.35;33.18;103239.13;5053786;28;20107;-74
2022/04/29 11:03:51;;;;;;;22.80;18.20;;;;;;;23.43;33.04;103252.22;5051383;28;20021;-73
2022/04/29 11:06:17;;;;;;;24.40;17.45;;;;;;;23.28;32.72;103236.09;5051359;28;20094;-75
2022/04/29 11:08:44;;;;;;;26.10;17.65;;;;;;;23.47;32.44;103233.63;5053049;28;20025;-75
2022/04/29 11:11:10;;;;;;;23.13;17.70;;;;;;;23.35;32.45;103228.81;5054636;28;20025;-75
2022/04/29 11:13:42;;;;;;;21.40;17.33;;;;;;;23.29;32.58;103232.16;5054428;28;20025;-75
2022/04/29 11:16:16;;;;;;;25.55;17.45;;;;;;;23.32;32.20;103231.47;5054250;28;20505;-74
2022/04/29 11:18:44;;;;;;;27.65;16.83;;;;;;;23.62;32.41;103226.63;5054409;28;20450;-75
2022/04/29 11:26:45;;;;;;;19.60;15.93;;;;;;;23.52;31.39;103230.66;5054368;28;20078;-70
2022/04/29 11:29:12;;;;;;;22.20;16.08;;;;;;;23.65;31.20;103228.72;5039441;28;20021;-73
2022/04/29 11:31:38;;;;;;;19.42;16.38;;;;;;;23.48;31.13;103229.69;5056636;28;20112;-74
2022/04/29 11:34:06;;;;;;;21.20;15.25;;;;;;;23.46;30.89;103234.78;5036953;28;20021;-72
2022/04/29 11:36:31;;;;;;;19.65;14.88;;;;;;;23.34;31.25;103229.97;5035915;28;20032;-72
2022/04/29 11:38:57;;;;;;;23.85;16.50;;;;;;;23.48;31.02;103224.91;5037273;28;20459;-71
2022/04/29 11:41:27;;;;;;;23.70;15.25;;;;;;;23.37;31.23;103225.69;5037926;28;20055;-74